createdAt,value
2023-02-02T00:00:16.701Z,0.00
2023-02-02T00:01:16.740Z,0.00
2023-02-02T00:02:16.669Z,0.00
2023-02-02T00:03:16.657Z,0.00
2023-02-02T00:04:16.670Z,0.00
2023-02-02T00:05:16.625Z,0.00
2023-02-02T00:06:16.605Z,0.00
2023-02-02T00:07:16.595Z,0.00
2023-02-02T00:08:16.574Z,0.00
2023-02-02T00:09:16.563Z,0.00
2023-02-02T00:10:16.541Z,0.00
2023-02-02T00:11:16.529Z,0.00
2023-02-02T00:12:16.515Z,0.00
2023-02-02T00:13:16.498Z,0.00
2023-02-02T00:14:16.484Z,0.00
2023-02-02T00:15:16.488Z,0.00
2023-02-02T00:16:16.525Z,0.00
2023-02-02T00:17:16.440Z,0.00
2023-02-02T00:18:16.416Z,0.00
2023-02-02T00:19:16.403Z,0.00
2023-02-02T00:20:16.384Z,0.00
2023-02-02T00:21:16.374Z,0.00
2023-02-02T00:22:16.351Z,0.00
2023-02-02T00:23:16.340Z,0.00
2023-02-02T00:24:16.319Z,0.00
2023-02-02T00:25:16.313Z,0.00
2023-02-02T00:26:16.322Z,0.00
2023-02-02T00:27:16.278Z,0.00
2023-02-02T00:28:16.258Z,0.00
2023-02-02T00:29:16.246Z,0.00
2023-02-02T00:30:16.225Z,0.00
2023-02-02T00:31:16.316Z,0.00
2023-02-02T00:32:16.191Z,0.00
2023-02-02T00:33:16.181Z,0.00
2023-02-02T00:34:16.159Z,0.00
2023-02-02T00:35:16.145Z,0.00
2023-02-02T00:36:16.129Z,0.00
2023-02-02T00:37:16.116Z,0.00
2023-02-02T00:38:16.104Z,0.00
2023-02-02T00:39:16.084Z,0.00
2023-02-02T00:40:16.067Z,0.00
2023-02-02T00:41:16.053Z,0.00
2023-02-02T00:42:16.032Z,0.00
2023-02-02T00:43:16.023Z,0.00
2023-02-02T00:44:16.001Z,0.00
2023-02-02T00:45:15.997Z,0.00
2023-02-02T00:46:15.971Z,0.00
2023-02-02T00:47:15.974Z,0.00
2023-02-02T00:48:15.935Z,0.00
2023-02-02T00:49:15.961Z,0.00
2023-02-02T00:50:15.907Z,0.00
2023-02-02T00:51:15.915Z,0.00
2023-02-02T00:52:15.874Z,0.00
2023-02-02T00:53:15.860Z,0.00
2023-02-02T00:54:15.839Z,0.00
2023-02-02T00:55:15.830Z,0.00
2023-02-02T00:56:15.809Z,0.00
2023-02-02T00:57:15.796Z,0.00
2023-02-02T00:58:15.776Z,0.00
2023-02-02T00:59:15.767Z,0.00
2023-02-02T01:00:15.747Z,0.00
2023-02-02T01:01:15.834Z,0.00
2023-02-02T01:02:15.786Z,0.00
2023-02-02T01:03:15.724Z,0.00
2023-02-02T01:04:15.680Z,0.00
2023-02-02T01:05:15.670Z,0.00
2023-02-02T01:06:15.647Z,0.00
2023-02-02T01:07:15.636Z,0.00
2023-02-02T01:08:15.618Z,0.00
2023-02-02T01:09:15.604Z,0.00
2023-02-02T01:10:15.582Z,0.00
2023-02-02T01:11:15.571Z,0.00
2023-02-02T01:12:15.554Z,0.00
2023-02-02T01:13:15.540Z,0.00
2023-02-02T01:14:15.520Z,0.00
2023-02-02T01:15:15.539Z,0.00
2023-02-02T01:16:15.627Z,0.00
2023-02-02T01:17:15.481Z,0.00
2023-02-02T01:18:15.458Z,0.00
2023-02-02T01:19:15.462Z,0.00
2023-02-02T01:20:15.430Z,0.00
2023-02-02T01:21:15.412Z,0.00
2023-02-02T01:22:15.396Z,0.00
2023-02-02T01:23:15.388Z,0.00
2023-02-02T01:24:15.362Z,0.00
2023-02-02T01:25:15.347Z,0.00
2023-02-02T01:26:15.332Z,0.00
2023-02-02T01:27:15.317Z,0.00
2023-02-02T01:28:15.301Z,0.00
2023-02-02T01:29:15.283Z,0.00
2023-02-02T01:30:15.264Z,0.00
2023-02-02T01:31:15.312Z,0.00
2023-02-02T01:32:15.232Z,0.00
2023-02-02T01:33:15.220Z,0.00
2023-02-02T01:34:15.203Z,0.00
2023-02-02T01:35:15.232Z,0.00
2023-02-02T01:36:15.174Z,0.00
2023-02-02T01:37:15.156Z,0.00
2023-02-02T01:38:15.135Z,0.00
2023-02-02T01:39:15.228Z,0.00
2023-02-02T01:40:15.102Z,0.00
2023-02-02T01:41:15.088Z,0.00
2023-02-02T01:42:15.081Z,0.00
2023-02-02T01:43:15.055Z,0.00
2023-02-02T01:44:15.043Z,0.00
2023-02-02T01:45:15.039Z,0.00
2023-02-02T01:46:15.087Z,0.00
2023-02-02T01:47:14.991Z,0.00
2023-02-02T01:48:14.981Z,0.00
2023-02-02T01:49:14.969Z,0.00
2023-02-02T01:50:14.958Z,0.00
2023-02-02T01:51:14.945Z,0.00
2023-02-02T01:52:14.920Z,0.00
2023-02-02T01:53:14.899Z,0.00
2023-02-02T01:54:14.886Z,0.00
2023-02-02T01:55:14.867Z,0.00
2023-02-02T01:56:14.849Z,0.00
2023-02-02T01:57:14.831Z,0.00
2023-02-02T01:58:14.825Z,0.00
2023-02-02T01:59:14.798Z,0.00
2023-02-02T02:00:14.793Z,0.00
2023-02-02T02:01:14.858Z,0.00
2023-02-02T02:02:14.769Z,0.00
2023-02-02T02:03:14.737Z,0.00
2023-02-02T02:04:14.721Z,0.00
2023-02-02T02:05:14.702Z,0.00
2023-02-02T02:06:14.711Z,0.00
2023-02-02T02:07:14.739Z,0.00
2023-02-02T02:08:14.656Z,0.00
2023-02-02T02:09:14.640Z,0.00
2023-02-02T02:10:14.622Z,0.00
2023-02-02T02:11:14.604Z,0.00
2023-02-02T02:12:14.596Z,0.00
2023-02-02T02:13:14.578Z,0.00
2023-02-02T02:14:14.564Z,0.00
2023-02-02T02:15:14.540Z,0.00
2023-02-02T02:16:14.539Z,0.00
2023-02-02T02:17:14.516Z,0.00
2023-02-02T02:18:14.495Z,0.00
2023-02-02T02:19:14.483Z,0.00
2023-02-02T02:20:14.467Z,0.00
2023-02-02T02:21:14.442Z,0.00
2023-02-02T02:22:14.432Z,0.00
2023-02-02T02:23:14.433Z,0.00
2023-02-02T02:24:14.403Z,0.00
2023-02-02T02:25:14.379Z,0.00
2023-02-02T02:26:14.364Z,0.00
2023-02-02T02:27:14.351Z,0.00
2023-02-02T02:28:14.332Z,0.00
2023-02-02T02:29:14.314Z,0.00
2023-02-02T02:30:14.306Z,0.00
2023-02-02T02:31:14.459Z,0.00
2023-02-02T02:32:14.278Z,0.00
2023-02-02T02:33:14.255Z,0.00
2023-02-02T02:34:14.235Z,0.00
2023-02-02T02:35:14.227Z,0.00
2023-02-02T02:36:14.206Z,0.00
2023-02-02T02:37:14.186Z,0.00
2023-02-02T02:38:14.183Z,0.00
2023-02-02T02:39:14.171Z,0.00
2023-02-02T02:40:14.154Z,0.00
2023-02-02T02:41:14.119Z,0.00
2023-02-02T02:42:14.105Z,0.00
2023-02-02T02:43:14.091Z,0.00
2023-02-02T02:44:14.075Z,0.00
2023-02-02T02:45:14.069Z,0.00
2023-02-02T02:46:14.069Z,0.00
2023-02-02T02:47:14.027Z,0.00
2023-02-02T02:48:14.018Z,0.00
2023-02-02T02:49:13.992Z,0.00
2023-02-02T02:50:13.975Z,0.00
2023-02-02T02:51:13.959Z,0.00
2023-02-02T02:52:13.942Z,0.00
2023-02-02T02:53:13.927Z,0.00
2023-02-02T02:54:13.916Z,0.00
2023-02-02T02:55:13.921Z,0.00
2023-02-02T02:56:13.876Z,0.00
2023-02-02T02:57:13.860Z,0.00
2023-02-02T02:58:13.851Z,0.00
2023-02-02T02:59:13.836Z,0.00
2023-02-02T03:00:13.813Z,0.00
2023-02-02T03:01:13.829Z,0.00
2023-02-02T03:02:13.794Z,0.00
2023-02-02T03:03:13.781Z,0.00
2023-02-02T03:04:13.759Z,0.00
2023-02-02T03:05:13.732Z,0.00
2023-02-02T03:06:13.715Z,0.00
2023-02-02T03:07:13.693Z,0.00
2023-02-02T03:08:13.681Z,0.00
2023-02-02T03:09:13.662Z,0.00
2023-02-02T03:10:13.655Z,0.00
2023-02-02T03:11:13.647Z,0.00
2023-02-02T03:12:13.616Z,0.00
2023-02-02T03:13:13.611Z,0.00
2023-02-02T03:14:13.582Z,0.00
2023-02-02T03:15:13.564Z,0.00
2023-02-02T03:16:13.586Z,0.00
2023-02-02T03:17:13.535Z,0.00
2023-02-02T03:18:13.518Z,0.00
2023-02-02T03:19:13.501Z,0.00
2023-02-02T03:20:13.490Z,0.00
2023-02-02T03:21:13.466Z,0.00
2023-02-02T03:22:13.453Z,0.00
2023-02-02T03:23:13.433Z,0.00
2023-02-02T03:24:13.420Z,0.00
2023-02-02T03:25:13.402Z,0.00
2023-02-02T03:26:13.386Z,0.00
2023-02-02T03:27:13.385Z,0.00
2023-02-02T03:28:13.354Z,0.00
2023-02-02T03:29:13.334Z,0.00
2023-02-02T03:30:13.321Z,0.00
2023-02-02T03:31:13.375Z,0.00
2023-02-02T03:32:13.294Z,0.00
2023-02-02T03:33:13.270Z,0.00
2023-02-02T03:34:13.257Z,0.00
2023-02-02T03:35:13.236Z,0.00
2023-02-02T03:36:13.222Z,0.00
2023-02-02T03:37:13.207Z,0.00
2023-02-02T03:38:13.191Z,0.00
2023-02-02T03:39:13.171Z,0.00
2023-02-02T03:40:13.157Z,0.00
2023-02-02T03:41:13.141Z,0.00
2023-02-02T03:42:13.128Z,0.00
2023-02-02T03:43:13.131Z,0.00
2023-02-02T03:44:13.093Z,0.00
2023-02-02T03:45:13.075Z,0.00
2023-02-02T03:46:13.136Z,0.00
2023-02-02T03:47:13.044Z,0.00
2023-02-02T03:48:13.026Z,0.00
2023-02-02T03:49:13.017Z,0.00
2023-02-02T03:50:12.999Z,0.00
2023-02-02T03:51:12.983Z,0.00
2023-02-02T03:52:12.963Z,0.00
2023-02-02T03:53:12.944Z,0.00
2023-02-02T03:54:12.930Z,0.00
2023-02-02T03:55:12.910Z,0.00
2023-02-02T03:56:12.897Z,0.00
2023-02-02T03:57:12.877Z,0.00
2023-02-02T03:58:12.878Z,0.00
2023-02-02T03:59:12.866Z,0.00
2023-02-02T04:00:12.834Z,0.00
2023-02-02T04:01:12.828Z,0.00
2023-02-02T04:02:12.799Z,0.00
2023-02-02T04:03:12.781Z,0.00
2023-02-02T04:04:12.768Z,0.00
2023-02-02T04:05:12.747Z,0.00
2023-02-02T04:06:12.734Z,0.00
2023-02-02T04:07:12.715Z,0.00
2023-02-02T04:08:12.706Z,0.00
2023-02-02T04:09:12.731Z,0.00
2023-02-02T04:10:12.667Z,0.00
2023-02-02T04:11:12.666Z,0.00
2023-02-02T04:12:12.637Z,0.00
2023-02-02T04:13:12.617Z,0.00
2023-02-02T04:14:12.603Z,0.00
2023-02-02T04:15:12.605Z,0.00
2023-02-02T04:16:12.608Z,0.00
2023-02-02T04:17:12.553Z,0.00
2023-02-02T04:18:12.544Z,0.00
2023-02-02T04:19:12.524Z,0.00
2023-02-02T04:20:12.507Z,0.00
2023-02-02T04:21:12.486Z,0.00
2023-02-02T04:22:12.475Z,0.00
2023-02-02T04:23:12.452Z,0.00
2023-02-02T04:24:12.439Z,0.00
2023-02-02T04:25:12.421Z,0.00
2023-02-02T04:26:12.407Z,0.00
2023-02-02T04:27:12.388Z,0.00
2023-02-02T04:28:12.376Z,0.00
2023-02-02T04:29:12.362Z,0.00
2023-02-02T04:30:12.342Z,0.00
2023-02-02T04:31:12.503Z,0.00
2023-02-02T04:32:12.316Z,0.00
2023-02-02T04:33:12.296Z,0.00
2023-02-02T04:34:12.285Z,0.00
2023-02-02T04:35:12.266Z,0.00
2023-02-02T04:36:12.244Z,0.00
2023-02-02T04:37:12.246Z,0.00
2023-02-02T04:38:12.211Z,0.00
2023-02-02T04:39:12.192Z,0.00
2023-02-02T04:40:12.177Z,0.00
2023-02-02T04:41:12.158Z,0.00
2023-02-02T04:42:12.146Z,0.00
2023-02-02T04:43:12.131Z,0.00
2023-02-02T04:44:12.113Z,0.00
2023-02-02T04:45:12.093Z,0.00
2023-02-02T04:46:12.179Z,0.00
2023-02-02T04:47:12.085Z,0.00
2023-02-02T04:48:12.050Z,0.00
2023-02-02T04:49:12.078Z,0.00
2023-02-02T04:50:12.019Z,0.00
2023-02-02T04:51:11.995Z,0.00
2023-02-02T04:52:11.988Z,0.00
2023-02-02T04:53:11.961Z,0.00
2023-02-02T04:54:11.955Z,0.00
2023-02-02T04:55:11.938Z,0.00
2023-02-02T04:56:11.928Z,0.00
2023-02-02T04:57:11.900Z,0.00
2023-02-02T04:58:11.883Z,0.00
2023-02-02T04:59:11.863Z,0.00
2023-02-02T05:00:11.856Z,0.00
2023-02-02T05:01:11.907Z,0.00
2023-02-02T05:02:11.820Z,0.00
2023-02-02T05:03:11.820Z,0.00
2023-02-02T05:04:11.836Z,0.00
2023-02-02T05:05:11.765Z,0.00
2023-02-02T05:06:13.094Z,0.00
2023-02-02T05:07:11.734Z,0.00
2023-02-02T05:08:11.720Z,0.00
2023-02-02T05:09:11.706Z,0.00
2023-02-02T05:10:11.700Z,0.00
2023-02-02T05:12:11.652Z,0.00
2023-02-02T05:13:11.641Z,0.00
2023-02-02T05:14:11.619Z,0.00
2023-02-02T05:15:11.605Z,0.00
2023-02-02T05:16:11.639Z,0.00
2023-02-02T05:17:11.577Z,0.00
2023-02-02T05:18:11.553Z,0.00
2023-02-02T05:19:11.569Z,0.00
2023-02-02T05:20:11.523Z,0.00
2023-02-02T05:21:11.509Z,0.00
2023-02-02T05:22:11.488Z,0.00
2023-02-02T05:23:11.483Z,0.00
2023-02-02T05:24:11.459Z,0.00
2023-02-02T05:25:11.449Z,0.00
2023-02-02T05:26:11.423Z,0.00
2023-02-02T05:27:11.409Z,0.00
2023-02-02T05:28:11.389Z,0.00
2023-02-02T05:29:11.383Z,0.00
2023-02-02T05:30:11.400Z,0.00
2023-02-02T05:31:11.411Z,0.00
2023-02-02T05:32:11.331Z,0.00
2023-02-02T05:33:11.328Z,0.00
2023-02-02T05:34:11.295Z,0.00
2023-02-02T05:35:11.297Z,0.00
2023-02-02T05:36:11.259Z,0.00
2023-02-02T05:37:11.244Z,0.00
2023-02-02T05:38:11.225Z,0.00
2023-02-02T05:39:11.221Z,0.00
2023-02-02T05:40:11.192Z,0.00
2023-02-02T05:41:11.179Z,0.00
2023-02-02T05:42:11.157Z,0.00
2023-02-02T05:43:11.148Z,0.00
2023-02-02T05:44:11.126Z,0.00
2023-02-02T05:45:11.113Z,0.00
2023-02-02T05:46:11.151Z,0.00
2023-02-02T05:47:11.080Z,0.00
2023-02-02T05:48:11.065Z,0.00
2023-02-02T05:49:11.048Z,0.00
2023-02-02T05:50:11.044Z,0.00
2023-02-02T05:51:11.040Z,0.00
2023-02-02T05:52:11.000Z,0.00
2023-02-02T05:53:10.983Z,0.00
2023-02-02T05:54:11.011Z,0.00
2023-02-02T05:55:10.949Z,0.00
2023-02-02T05:56:10.951Z,0.00
2023-02-02T05:57:10.923Z,0.00
2023-02-02T05:58:10.908Z,0.00
2023-02-02T05:59:10.879Z,0.00
2023-02-02T06:00:10.868Z,0.00
2023-02-02T06:01:10.850Z,0.00
2023-02-02T06:02:10.838Z,0.00
2023-02-02T06:03:10.885Z,0.00
2023-02-02T06:04:10.854Z,0.00
2023-02-02T06:05:10.783Z,0.00
2023-02-02T06:06:10.766Z,0.00
2023-02-02T06:07:10.775Z,0.00
2023-02-02T06:08:10.737Z,0.00
2023-02-02T06:09:10.712Z,0.00
2023-02-02T06:10:10.708Z,0.00
2023-02-02T06:11:10.686Z,0.00
2023-02-02T06:12:10.689Z,0.00
2023-02-02T06:13:10.648Z,0.00
2023-02-02T06:14:10.632Z,0.00
2023-02-02T06:15:10.617Z,0.00
2023-02-02T06:16:10.661Z,0.00
2023-02-02T06:17:10.581Z,0.00
2023-02-02T06:18:10.568Z,0.00
2023-02-02T06:19:10.577Z,0.00
2023-02-02T06:20:10.540Z,0.00
2023-02-02T06:21:10.523Z,0.00
2023-02-02T06:22:10.502Z,0.00
2023-02-02T06:23:10.504Z,0.00
2023-02-02T06:24:10.519Z,0.00
2023-02-02T06:25:10.450Z,0.00
2023-02-02T06:26:10.436Z,0.00
2023-02-02T06:27:10.417Z,0.00
2023-02-02T06:28:10.404Z,0.00
2023-02-02T06:29:10.383Z,0.00
2023-02-02T06:30:10.371Z,0.00
2023-02-02T06:31:10.460Z,0.00
2023-02-02T06:32:10.391Z,0.00
2023-02-02T06:33:10.320Z,0.00
2023-02-02T06:34:10.310Z,0.00
2023-02-02T06:35:10.287Z,0.00
2023-02-02T06:36:10.283Z,0.00
2023-02-02T06:37:10.271Z,0.00
2023-02-02T06:38:10.238Z,4.00
2023-02-02T06:39:10.242Z,4.00
2023-02-02T06:40:10.223Z,0.00
2023-02-02T06:41:10.189Z,0.00
2023-02-02T06:42:20.879Z,4.00
2023-02-02T06:43:10.153Z,4.00
2023-02-02T06:44:10.141Z,4.00
2023-02-02T06:45:10.122Z,4.00
2023-02-02T06:46:10.154Z,8.00
2023-02-02T06:47:10.111Z,8.00
2023-02-02T06:48:10.073Z,8.00
2023-02-02T06:49:10.054Z,8.00
2023-02-02T06:50:10.051Z,8.00
2023-02-02T06:51:10.034Z,12.00
2023-02-02T06:52:10.013Z,12.00
2023-02-02T06:53:09.989Z,12.00
2023-02-02T06:54:10.030Z,16.00
2023-02-02T06:55:09.977Z,16.00
2023-02-02T06:56:09.945Z,16.00
2023-02-02T06:57:09.923Z,20.00
2023-02-02T06:58:09.908Z,20.00
2023-02-02T06:59:09.890Z,24.00
2023-02-02T07:00:09.879Z,28.00
2023-02-02T07:01:09.925Z,32.00
2023-02-02T07:02:09.841Z,32.00
2023-02-02T07:03:09.832Z,36.00
2023-02-02T07:04:09.821Z,36.00
2023-02-02T07:05:09.791Z,40.00
2023-02-02T07:06:09.778Z,40.00
2023-02-02T07:07:09.766Z,40.00
2023-02-02T07:08:09.745Z,44.00
2023-02-02T07:09:09.725Z,44.00
2023-02-02T07:10:09.723Z,48.00
2023-02-02T07:11:15.454Z,48.00
2023-02-02T07:12:09.679Z,52.00
2023-02-02T07:13:09.665Z,56.00
2023-02-02T07:14:09.656Z,52.00
2023-02-02T07:15:09.628Z,56.00
2023-02-02T07:16:09.855Z,56.00
2023-02-02T07:17:09.594Z,56.00
2023-02-02T07:18:09.589Z,60.00
2023-02-02T07:19:09.561Z,64.00
2023-02-02T07:20:09.552Z,68.00
2023-02-02T07:21:09.528Z,72.00
2023-02-02T07:22:09.521Z,80.00
2023-02-02T07:23:09.512Z,84.00
2023-02-02T07:24:09.485Z,88.00
2023-02-02T07:25:09.464Z,96.00
2023-02-02T07:26:09.450Z,100.00
2023-02-02T07:27:09.452Z,104.00
2023-02-02T07:28:09.425Z,108.00
2023-02-02T07:29:09.397Z,112.00
2023-02-02T07:30:09.389Z,116.00
2023-02-02T07:31:09.488Z,124.00
2023-02-02T07:32:09.352Z,124.00
2023-02-02T07:33:09.340Z,128.00
2023-02-02T07:34:09.318Z,136.00
2023-02-02T07:35:09.300Z,140.00
2023-02-02T07:36:09.289Z,144.00
2023-02-02T07:37:09.268Z,156.00
2023-02-02T07:38:09.254Z,164.00
2023-02-02T07:39:09.270Z,176.00
2023-02-02T07:40:09.224Z,176.00
2023-02-02T07:41:09.211Z,180.00
2023-02-02T07:42:09.188Z,184.00
2023-02-02T07:43:09.193Z,188.00
2023-02-02T07:44:09.157Z,196.00
2023-02-02T07:45:35.844Z,204.00
2023-02-02T07:46:09.133Z,208.00
2023-02-02T07:47:09.106Z,212.00
2023-02-02T07:48:09.099Z,212.00
2023-02-02T07:49:09.073Z,216.00
2023-02-02T07:50:09.062Z,216.00
2023-02-02T07:51:09.040Z,220.00
2023-02-02T07:52:09.026Z,224.00
2023-02-02T07:53:09.007Z,228.00
2023-02-02T07:54:08.995Z,236.00
2023-02-02T07:55:14.836Z,240.00
2023-02-02T07:56:09.016Z,244.00
2023-02-02T07:57:08.943Z,252.00
2023-02-02T07:58:08.931Z,248.00
2023-02-02T07:59:08.929Z,248.00
2023-02-02T08:00:08.900Z,256.00
2023-02-02T08:01:08.933Z,264.00
2023-02-02T08:02:09.016Z,264.00
2023-02-02T08:03:08.896Z,268.00
2023-02-02T08:04:08.835Z,264.00
2023-02-02T08:05:08.824Z,268.00
2023-02-02T08:06:08.807Z,276.00
2023-02-02T08:07:08.788Z,288.00
2023-02-02T08:08:08.780Z,300.00
2023-02-02T08:09:08.749Z,304.00
2023-02-02T08:10:08.735Z,304.00
2023-02-02T08:11:08.718Z,308.00
2023-02-02T08:12:08.703Z,304.00
2023-02-02T08:13:08.698Z,304.00
2023-02-02T08:14:08.669Z,320.00
2023-02-02T08:15:08.703Z,328.00
2023-02-02T08:16:08.885Z,344.00
2023-02-02T08:17:08.623Z,356.00
2023-02-02T08:18:08.609Z,380.00
2023-02-02T08:19:08.588Z,396.00
2023-02-02T08:20:08.576Z,408.00
2023-02-02T08:21:08.589Z,404.00
2023-02-02T08:22:08.543Z,388.00
2023-02-02T08:23:08.586Z,372.00
2023-02-02T08:24:08.511Z,356.00
2023-02-02T08:25:08.499Z,340.00
2023-02-02T08:26:08.483Z,332.00
2023-02-02T08:27:08.461Z,328.00
2023-02-02T08:28:08.504Z,320.00
2023-02-02T08:29:08.428Z,308.00
2023-02-02T08:30:08.418Z,296.00
2023-02-02T08:31:08.493Z,284.00
2023-02-02T08:32:08.394Z,280.00
2023-02-02T08:33:08.364Z,276.00
2023-02-02T08:34:08.350Z,276.00
2023-02-02T08:35:08.331Z,276.00
2023-02-02T08:36:08.323Z,280.00
2023-02-02T08:37:08.302Z,280.00
2023-02-02T08:38:08.291Z,280.00
2023-02-02T08:39:08.276Z,276.00
2023-02-02T08:40:08.303Z,268.00
2023-02-02T08:41:08.245Z,264.00
2023-02-02T08:42:08.222Z,264.00
2023-02-02T08:43:08.483Z,272.00
2023-02-02T08:44:10.936Z,284.00
2023-02-02T08:46:02.361Z,292.00
2023-02-02T08:46:08.355Z,300.00
2023-02-02T08:47:08.298Z,304.00
2023-02-02T08:48:12.016Z,304.00
2023-02-02T08:49:08.110Z,316.00
2023-02-02T08:50:08.098Z,320.00
2023-02-02T08:51:08.081Z,324.00
2023-02-02T08:52:08.068Z,328.00
2023-02-02T08:53:08.052Z,332.00
2023-02-02T08:54:08.033Z,340.00
2023-02-02T08:55:08.016Z,364.00
2023-02-02T08:56:08.009Z,392.00
2023-02-02T08:57:07.986Z,428.00
2023-02-02T08:58:07.971Z,448.00
2023-02-02T08:59:08.010Z,480.00
2023-02-02T09:00:07.937Z,492.00
2023-02-02T09:01:08.003Z,492.00
2023-02-02T09:02:07.953Z,492.00
2023-02-02T09:03:07.913Z,496.00
2023-02-02T09:04:07.874Z,492.00
2023-02-02T09:05:07.856Z,496.00
2023-02-02T09:06:07.853Z,488.00
2023-02-02T09:07:07.830Z,480.00
2023-02-02T09:08:07.828Z,476.00
2023-02-02T09:09:07.792Z,480.00
2023-02-02T09:10:07.777Z,492.00
2023-02-02T09:11:07.780Z,520.00
2023-02-02T09:12:07.753Z,532.00
2023-02-02T09:13:07.729Z,548.00
2023-02-02T09:14:07.720Z,536.00
2023-02-02T09:15:07.700Z,484.00
2023-02-02T09:16:07.735Z,440.00
2023-02-02T09:17:07.667Z,408.00
2023-02-02T09:18:07.731Z,372.00
2023-02-02T09:19:07.659Z,348.00
2023-02-02T09:20:07.626Z,340.00
2023-02-02T09:21:07.607Z,340.00
2023-02-02T09:22:07.589Z,336.00
2023-02-02T09:23:07.570Z,344.00
2023-02-02T09:24:07.558Z,344.00
2023-02-02T09:25:07.589Z,336.00
2023-02-02T09:26:07.526Z,328.00
2023-02-02T09:27:07.509Z,332.00
2023-02-02T09:28:07.496Z,344.00
2023-02-02T09:29:07.497Z,340.00
2023-02-02T09:30:07.462Z,332.00
2023-02-02T09:31:07.501Z,332.00
2023-02-02T09:32:07.502Z,364.00
2023-02-02T09:33:07.415Z,388.00
2023-02-02T09:34:07.406Z,416.00
2023-02-02T09:35:07.436Z,444.00
2023-02-02T09:36:07.367Z,496.00
2023-02-02T09:37:07.351Z,536.00
2023-02-02T09:38:07.337Z,584.00
2023-02-02T09:39:07.323Z,636.00
2023-02-02T09:40:07.306Z,656.00
2023-02-02T09:41:07.793Z,632.00
2023-02-02T09:42:07.275Z,596.00
2023-02-02T09:43:07.256Z,556.00
2023-02-02T09:44:07.245Z,548.00
2023-02-02T09:45:07.228Z,536.00
2023-02-02T09:46:07.362Z,516.00
2023-02-02T09:47:07.192Z,536.00
2023-02-02T09:48:07.179Z,592.00
2023-02-02T09:49:07.166Z,676.00
2023-02-02T09:50:07.152Z,744.00
2023-02-02T09:51:07.152Z,816.00
2023-02-02T09:52:07.126Z,892.00
2023-02-02T09:53:08.044Z,984.00
2023-02-02T09:54:07.086Z,1072.00
2023-02-02T09:55:07.067Z,1096.00
2023-02-02T09:56:07.053Z,1104.00
2023-02-02T09:57:07.042Z,1056.00
2023-02-02T09:58:07.032Z,1008.00
2023-02-02T09:59:19.356Z,884.00
2023-02-02T10:00:07.002Z,748.00
2023-02-02T10:01:07.050Z,716.00
2023-02-02T10:02:06.962Z,700.00
2023-02-02T10:03:06.943Z,756.00
2023-02-02T10:04:06.972Z,804.00
2023-02-02T10:05:08.299Z,900.00
2023-02-02T10:06:06.901Z,988.00
2023-02-02T10:07:06.903Z,988.00
2023-02-02T10:08:06.905Z,928.00
2023-02-02T10:09:06.852Z,900.00
2023-02-02T10:10:06.841Z,892.00
2023-02-02T10:11:06.820Z,868.00
2023-02-02T10:12:06.808Z,876.00
2023-02-02T10:13:06.836Z,848.00
2023-02-02T10:14:06.783Z,860.00
2023-02-02T10:15:06.761Z,840.00
2023-02-02T10:16:06.774Z,768.00
2023-02-02T10:17:06.738Z,728.00
2023-02-02T10:18:06.714Z,728.00
2023-02-02T10:19:06.701Z,752.00
2023-02-02T10:20:06.686Z,764.00
2023-02-02T10:21:06.670Z,836.00
2023-02-02T10:22:06.656Z,872.00
2023-02-02T10:23:06.659Z,888.00
2023-02-02T10:24:06.625Z,880.00
2023-02-02T10:25:06.610Z,876.00
2023-02-02T10:26:06.591Z,868.00
2023-02-02T10:27:06.593Z,872.00
2023-02-02T10:28:06.569Z,896.00
2023-02-02T10:29:06.551Z,896.00
2023-02-02T10:30:06.532Z,920.00
2023-02-02T10:31:06.619Z,940.00
2023-02-02T10:32:06.623Z,1028.00
2023-02-02T10:33:06.497Z,1140.00
2023-02-02T10:34:06.472Z,1240.00
2023-02-02T10:35:13.861Z,1248.00
2023-02-02T10:36:06.464Z,1264.00
2023-02-02T10:37:06.430Z,1188.00
2023-02-02T10:38:07.464Z,1092.00
2023-02-02T10:39:06.428Z,1056.00
2023-02-02T10:40:06.458Z,1076.00
2023-02-02T10:41:06.370Z,1000.00
2023-02-02T10:42:06.351Z,948.00
2023-02-02T10:43:06.345Z,880.00
2023-02-02T10:44:06.322Z,824.00
2023-02-02T10:45:06.327Z,884.00
2023-02-02T10:46:06.364Z,1044.00
2023-02-02T10:47:06.282Z,1108.00
2023-02-02T10:48:06.289Z,1120.00
2023-02-02T10:49:06.250Z,1072.00
2023-02-02T10:50:06.248Z,976.00
2023-02-02T10:51:06.226Z,852.00
2023-02-02T10:52:06.207Z,756.00
2023-02-02T10:53:06.191Z,700.00
2023-02-02T10:54:06.173Z,716.00
2023-02-02T10:55:06.183Z,760.00
2023-02-02T10:56:06.151Z,768.00
2023-02-02T10:57:06.132Z,772.00
2023-02-02T10:58:06.113Z,740.00
2023-02-02T10:59:06.131Z,728.00
2023-02-02T11:00:06.096Z,736.00
2023-02-02T11:01:06.185Z,720.00
2023-02-02T11:02:20.029Z,716.00
2023-02-02T11:03:06.083Z,704.00
2023-02-02T11:04:06.027Z,736.00
2023-02-02T11:05:06.012Z,740.00
2023-02-02T11:06:06.001Z,772.00
2023-02-02T11:07:05.986Z,764.00
2023-02-02T11:08:05.967Z,752.00
2023-02-02T11:09:05.962Z,716.00
2023-02-02T11:10:05.944Z,680.00
2023-02-02T11:11:05.953Z,704.00
2023-02-02T11:12:05.912Z,716.00
2023-02-02T11:13:05.897Z,740.00
2023-02-02T11:14:05.879Z,792.00
2023-02-02T11:15:05.872Z,884.00
2023-02-02T11:16:05.997Z,960.00
2023-02-02T11:17:05.840Z,944.00
2023-02-02T11:18:05.819Z,932.00
2023-02-02T11:19:05.808Z,924.00
2023-02-02T11:20:05.793Z,952.00
2023-02-02T11:21:05.778Z,1008.00
2023-02-02T11:22:05.768Z,1080.00
2023-02-02T11:23:05.755Z,1132.00
2023-02-02T11:24:05.739Z,1160.00
2023-02-02T11:25:05.721Z,1120.00
2023-02-02T11:26:05.702Z,1040.00
2023-02-02T11:27:05.715Z,1012.00
2023-02-02T11:28:05.678Z,976.00
2023-02-02T11:29:05.665Z,944.00
2023-02-02T11:30:05.647Z,948.00
2023-02-02T11:31:05.764Z,936.00
2023-02-02T11:32:05.613Z,900.00
2023-02-02T11:33:05.603Z,892.00
2023-02-02T11:34:05.586Z,876.00
2023-02-02T11:35:05.624Z,848.00
2023-02-02T11:36:05.556Z,844.00
2023-02-02T11:37:05.545Z,824.00
2023-02-02T11:38:05.531Z,804.00
2023-02-02T11:39:05.517Z,828.00
2023-02-02T11:40:05.501Z,792.00
2023-02-02T11:41:05.503Z,800.00
2023-02-02T11:42:05.488Z,764.00
2023-02-02T11:43:05.478Z,720.00
2023-02-02T11:44:05.446Z,732.00
2023-02-02T11:45:05.432Z,744.00
2023-02-02T11:46:05.568Z,728.00
2023-02-02T11:47:05.400Z,720.00
2023-02-02T11:48:05.385Z,752.00
2023-02-02T11:49:05.373Z,744.00
2023-02-02T11:50:05.355Z,744.00
2023-02-02T11:51:05.414Z,744.00
2023-02-02T11:52:05.335Z,736.00
2023-02-02T11:53:05.314Z,728.00
2023-02-02T11:54:05.299Z,716.00
2023-02-02T11:55:05.285Z,720.00
2023-02-02T11:56:05.266Z,748.00
2023-02-02T11:57:05.257Z,780.00
2023-02-02T11:58:05.239Z,820.00
2023-02-02T11:59:05.246Z,864.00
2023-02-02T12:00:05.210Z,944.00
2023-02-02T12:01:05.199Z,1024.00
2023-02-02T12:02:05.232Z,1152.00
2023-02-02T12:03:05.170Z,1256.00
2023-02-02T12:04:05.219Z,1344.00
2023-02-02T12:05:05.147Z,1392.00
2023-02-02T12:06:05.129Z,1412.00
2023-02-02T12:07:05.111Z,1360.00
2023-02-02T12:08:05.144Z,1300.00
2023-02-02T12:09:05.100Z,1296.00
2023-02-02T12:10:05.064Z,1344.00
2023-02-02T12:11:05.052Z,1344.00
2023-02-02T12:12:05.034Z,1300.00
2023-02-02T12:13:05.028Z,1252.00
2023-02-02T12:14:05.006Z,1220.00
2023-02-02T12:15:05.016Z,1232.00
2023-02-02T12:16:06.627Z,1240.00
2023-02-02T12:17:04.968Z,1280.00
2023-02-02T12:18:04.950Z,1336.00
2023-02-02T12:19:04.940Z,1376.00
2023-02-02T12:20:04.928Z,1428.00
2023-02-02T12:21:04.910Z,1400.00
2023-02-02T12:22:04.899Z,1360.00
2023-02-02T12:23:04.887Z,1296.00
2023-02-02T12:24:04.867Z,1272.00
2023-02-02T12:25:04.855Z,1200.00
2023-02-02T12:26:04.836Z,1140.00
2023-02-02T12:27:04.828Z,1004.00
2023-02-02T12:28:04.811Z,880.00
2023-02-02T12:29:04.798Z,836.00
2023-02-02T12:30:04.781Z,744.00
2023-02-02T12:31:04.927Z,728.00
2023-02-02T12:32:04.825Z,772.00
2023-02-02T12:33:04.740Z,804.00
2023-02-02T12:34:04.721Z,844.00
2023-02-02T12:35:04.719Z,784.00
2023-02-02T12:36:04.697Z,716.00
2023-02-02T12:37:04.734Z,664.00
2023-02-02T12:38:04.670Z,624.00
2023-02-02T12:39:04.656Z,608.00
2023-02-02T12:40:04.648Z,604.00
2023-02-02T12:41:04.627Z,608.00
2023-02-02T12:42:04.626Z,660.00
2023-02-02T12:43:04.648Z,752.00
2023-02-02T12:44:04.583Z,776.00
2023-02-02T12:45:04.573Z,780.00
2023-02-02T12:46:04.593Z,792.00
2023-02-02T12:47:04.564Z,848.00
2023-02-02T12:48:04.559Z,912.00
2023-02-02T12:49:04.516Z,960.00
2023-02-02T12:50:04.509Z,996.00
2023-02-02T12:51:04.484Z,1088.00
2023-02-02T12:52:04.469Z,1208.00
2023-02-02T12:53:04.457Z,1216.00
2023-02-02T12:54:34.425Z,1056.00